Time;durP1;ratioP1;P1;durP2;ratioP2;P2;SDS_P1;SDS_P2;PMS_P1;PMS_P2;Temp;Humidity;BMP_temperature;BMP_pressure;BME280_temperature;BME280_humidity;BME280_pressure;Samples;Min_cycle;Max_cycle;Signal;HPM_P1;HPM_P2
2022/02/21 00:02:22;;;;;;;5.13;1.10;;;;;;;-141.50;100.00;63355.56;4920537;29;20120;-79
2022/02/21 00:04:49;;;;;;;3.88;0.80;;;;;;;-141.50;100.00;63355.56;4919801;29;20056;-76
2022/02/21 00:07:15;;;;;;;5.32;0.90;;;;;;;-141.50;100.00;63355.56;4918498;29;20048;-76
2022/02/21 00:09:42;;;;;;;5.20;1.35;;;;;;;-141.50;100.00;63355.56;4918836;29;20060;-77
2022/02/21 00:12:09;;;;;;;4.45;1.10;;;;;;;-141.50;100.00;63355.56;4920115;29;20052;-76
2022/02/21 00:14:39;;;;;;;4.47;1.17;;;;;;;-141.50;100.00;63355.56;4919407;29;20064;-76
2022/02/21 00:17:06;;;;;;;4.45;1.23;;;;;;;-141.50;100.00;63355.56;4919911;29;20052;-78
2022/02/21 00:19:33;;;;;;;6.32;1.27;;;;;;;-141.50;100.00;63355.56;4918869;29;20056;-76
2022/02/21 00:22:00;;;;;;;7.85;1.20;;;;;;;-141.50;100.00;63355.56;4919324;29;20433;-78
2022/02/21 00:24:26;;;;;;;7.60;1.13;;;;;;;-141.50;100.00;63355.56;4917313;29;20048;-78
2022/02/21 00:26:53;;;;;;;6.72;1.10;;;;;;;-141.50;100.00;63355.56;4915380;29;20406;-78
2022/02/21 00:29:20;;;;;;;5.88;1.10;;;;;;;-141.50;100.00;63355.56;4921283;29;20067;-77
2022/02/21 00:31:47;;;;;;;4.63;0.90;;;;;;;-141.50;100.00;63355.56;4927666;29;20142;-75
2022/02/21 00:34:13;;;;;;;6.95;1.20;;;;;;;-141.50;100.00;63355.56;4921108;29;20055;-77
2022/02/21 00:36:40;;;;;;;6.47;1.10;;;;;;;-141.50;100.00;63355.56;4917976;29;20071;-76
2022/02/21 00:39:07;;;;;;;8.20;1.17;;;;;;;-141.50;100.00;63355.56;4918332;29;20119;-77
2022/02/21 00:41:33;;;;;;;6.50;1.17;;;;;;;-141.50;100.00;63355.56;4917420;29;20052;-78
2022/02/21 00:44:00;;;;;;;5.00;1.30;;;;;;;-141.50;100.00;63355.56;4919027;29;20052;-78
2022/02/21 00:46:27;;;;;;;5.70;0.90;;;;;;;-141.50;100.00;63355.56;4919801;29;20056;-79
2022/02/21 00:48:54;;;;;;;4.55;0.85;;;;;;;-141.50;100.00;63355.56;4919250;29;20068;-77
2022/02/21 00:51:20;;;;;;;6.63;1.00;;;;;;;-141.50;100.00;63355.56;4919744;29;20237;-78
2022/02/21 00:53:47;;;;;;;5.30;0.90;;;;;;;-141.50;100.00;63355.56;4903503;29;20056;-78
2022/02/21 00:56:14;;;;;;;3.78;0.80;;;;;;;-141.50;100.00;63355.56;4918569;29;20058;-79
2022/02/21 00:58:41;;;;;;;3.03;0.90;;;;;;;-141.50;100.00;63355.56;4918992;29;20075;-77
2022/02/21 01:01:07;;;;;;;5.95;1.27;;;;;;;-141.50;100.00;63355.56;4916234;29;20058;-77
2022/02/21 01:03:34;;;;;;;4.65;0.90;;;;;;;-141.50;100.00;63355.56;4917702;29;20075;-78
2022/02/21 01:06:01;;;;;;;2.75;0.77;;;;;;;-141.50;100.00;63355.56;4919245;29;20048;-77
2022/02/21 01:08:27;;;;;;;3.28;0.63;;;;;;;-141.50;100.00;63355.56;4917349;29;20147;-78
2022/02/21 01:10:54;;;;;;;3.17;0.90;;;;;;;-141.50;100.00;63355.56;4915937;29;20283;-78
2022/02/21 01:13:23;;;;;;;3.50;0.85;;;;;;;-141.50;100.00;63355.56;4918276;29;20056;-78
2022/02/21 01:15:53;;;;;;;3.15;0.60;;;;;;;-141.50;100.00;63355.56;4916709;29;20457;-78
2022/02/21 01:18:21;;;;;;;1.52;0.65;;;;;;;-141.50;100.00;63355.56;4920357;29;20154;-77
2022/02/21 01:20:48;;;;;;;4.82;0.80;;;;;;;-141.50;100.00;63355.56;4921320;29;20056;-78
2022/02/21 01:23:14;;;;;;;3.70;1.05;;;;;;;-141.50;100.00;63355.56;4923834;29;20044;-77
2022/02/21 01:25:42;;;;;;;3.50;0.75;;;;;;;-141.50;100.00;63355.56;4918336;29;20179;-77
2022/02/21 01:28:09;;;;;;;4.60;0.80;;;;;;;-141.50;100.00;63355.56;4920112;29;20040;-77
2022/02/21 01:30:35;;;;;;;3.35;0.73;;;;;;;-141.50;100.00;63355.56;4919458;29;20118;-76
2022/02/21 01:33:02;;;;;;;3.70;1.10;;;;;;;-141.50;100.00;63355.56;4918283;29;20509;-76
2022/02/21 01:35:29;;;;;;;2.78;0.70;;;;;;;-141.50;100.00;63355.56;4920318;29;20040;-76
2022/02/21 01:37:56;;;;;;;4.50;1.05;;;;;;;-141.50;100.00;63355.56;4917761;29;20508;-78
2022/02/21 01:40:22;;;;;;;3.72;0.82;;;;;;;-141.50;100.00;63355.56;4916794;29;20520;-77
2022/02/21 01:42:49;;;;;;;2.25;0.45;;;;;;;-141.50;100.00;63355.56;4915493;29;20083;-77
2022/02/21 01:45:16;;;;;;;4.07;1.10;;;;;;;-141.50;100.00;63355.56;4917186;29;20527;-77
2022/02/21 01:47:43;;;;;;;3.30;0.68;;;;;;;-141.50;100.00;63355.56;4917555;29;20044;-77
2022/02/21 01:50:09;;;;;;;3.38;0.70;;;;;;;-141.50;100.00;63355.56;4917070;29;20052;-77
2022/02/21 01:52:37;;;;;;;4.05;0.95;;;;;;;-141.50;100.00;63355.56;4915800;29;20067;-76
2022/02/21 01:55:05;;;;;;;4.15;0.82;;;;;;;-141.50;100.00;63355.56;4916302;29;20060;-77
2022/02/21 01:57:32;;;;;;;4.68;0.70;;;;;;;-141.50;100.00;63355.56;4915968;29;20182;-76
2022/02/21 01:59:59;;;;;;;1.90;0.50;;;;;;;-141.50;100.00;63355.56;4914526;29;20071;-77
2022/02/21 02:02:26;;;;;;;2.13;0.63;;;;;;;-141.50;100.00;63355.56;4917572;29;20388;-77
2022/02/21 02:04:52;;;;;;;2.28;0.57;;;;;;;-141.50;100.00;63355.56;4914326;29;20063;-77
2022/02/21 02:07:19;;;;;;;2.35;0.57;;;;;;;-141.50;100.00;63355.56;4920309;29;20071;-77
2022/02/21 02:09:46;;;;;;;1.30;0.50;;;;;;;-141.50;100.00;63355.56;4917095;29;20079;-77
2022/02/21 02:12:12;;;;;;;2.08;0.52;;;;;;;-141.50;100.00;63355.56;4918638;29;20507;-78
2022/02/21 02:14:41;;;;;;;4.82;0.90;;;;;;;-141.50;100.00;63355.56;4916644;29;20411;-77
2022/02/21 02:17:10;;;;;;;2.83;0.70;;;;;;;-141.50;100.00;63355.56;4936227;29;20058;-78
2022/02/21 02:19:38;;;;;;;1.40;0.50;;;;;;;-141.50;100.00;63355.56;4936341;29;20143;-77
2022/02/21 02:22:12;;;;;;;3.03;0.70;;;;;;;-141.50;100.00;63355.56;4934858;29;20062;-77
2022/02/21 02:24:40;;;;;;;2.08;0.60;;;;;;;-141.50;100.00;63355.56;4936673;29;20055;-77
2022/02/21 02:27:10;;;;;;;5.60;0.80;;;;;;;-141.50;100.00;63355.56;4951521;29;20119;-79
2022/02/21 02:29:38;;;;;;;2.67;0.55;;;;;;;-141.50;100.00;63355.56;4954998;28;20070;-77
2022/02/21 02:32:06;;;;;;;1.48;0.50;;;;;;;-141.50;100.00;63355.56;4939645;29;20055;-76
2022/02/21 02:34:34;;;;;;;1.65;0.43;;;;;;;-141.50;100.00;63355.56;4937968;29;20052;-77
2022/02/21 02:37:01;;;;;;;1.70;0.43;;;;;;;-141.50;100.00;63355.56;4936692;29;20109;-75
2022/02/21 02:39:27;;;;;;;1.55;0.50;;;;;;;-141.50;100.00;63355.56;4934186;29;20600;-77
2022/02/21 02:41:54;;;;;;;2.08;0.50;;;;;;;-141.50;100.00;63355.56;4935451;29;20048;-76
2022/02/21 02:44:21;;;;;;;1.60;0.43;;;;;;;-141.50;100.00;63355.56;4936928;29;20069;-76
2022/02/21 02:46:48;;;;;;;2.17;0.43;;;;;;;-141.50;100.00;63355.56;4937145;29;20070;-76
2022/02/21 02:49:15;;;;;;;3.00;0.55;;;;;;;-141.50;100.00;63355.56;4936740;29;20059;-76
2022/02/21 02:51:42;;;;;;;4.85;0.50;;;;;;;-141.50;100.00;63355.56;4934464;29;20050;-77
2022/02/21 02:54:12;;;;;;;4.30;0.60;;;;;;;-141.50;100.00;63355.56;4934869;29;20415;-77
2022/02/21 02:56:40;;;;;;;3.40;0.45;;;;;;;-141.50;100.00;63355.56;4934295;29;20377;-76
2022/02/21 02:59:07;;;;;;;1.52;0.50;;;;;;;-141.50;100.00;63355.56;4934663;29;20052;-76
2022/02/21 03:01:35;;;;;;;2.63;0.50;;;;;;;-141.50;100.00;63355.56;4934360;29;20105;-76
2022/02/21 03:04:02;;;;;;;1.48;0.47;;;;;;;-141.50;100.00;63355.56;4936580;29;20052;-77
2022/02/21 03:06:29;;;;;;;2.63;0.40;;;;;;;-141.50;100.00;63355.56;4935544;29;20056;-76
2022/02/21 03:08:56;;;;;;;0.88;0.20;;;;;;;-141.50;100.00;63355.56;4934475;29;20058;-78
2022/02/21 03:11:23;;;;;;;0.98;0.30;;;;;;;-141.50;100.00;63355.56;4935475;29;20044;-76
2022/02/21 03:13:49;;;;;;;2.67;0.50;;;;;;;-141.50;100.00;63355.56;4933697;29;20048;-77
2022/02/21 03:16:17;;;;;;;0.98;0.35;;;;;;;-141.50;100.00;63355.56;4935077;29;20087;-78
2022/02/21 03:18:44;;;;;;;1.77;0.30;;;;;;;-141.50;100.00;63355.56;4934690;29;20075;-76
2022/02/21 03:21:11;;;;;;;1.85;0.45;;;;;;;-141.50;100.00;63355.56;4933902;29;20064;-76
2022/02/21 03:23:38;;;;;;;2.05;0.40;;;;;;;-141.50;100.00;63355.56;4937950;29;20048;-77
2022/02/21 03:26:05;;;;;;;5.03;0.40;;;;;;;-141.50;100.00;63355.56;4950000;28;20054;-78
2022/02/21 03:28:31;;;;;;;2.88;0.50;;;;;;;-141.50;100.00;63355.56;4947792;29;20528;-79
2022/02/21 03:30:58;;;;;;;1.23;0.52;;;;;;;-141.50;100.00;63355.56;4938888;29;20059;-77
2022/02/21 03:33:25;;;;;;;2.60;0.60;;;;;;;-141.50;100.00;63355.56;4946919;29;20051;-79
2022/02/21 03:35:52;;;;;;;1.10;0.38;;;;;;;-141.50;100.00;63355.56;4946128;29;20059;-77
2022/02/21 03:38:18;;;;;;;1.45;0.30;;;;;;;-141.50;100.00;63355.56;4940559;29;20058;-79
2022/02/21 03:40:45;;;;;;;2.35;0.47;;;;;;;-141.50;100.00;63355.56;4934799;29;20059;-79
2022/02/21 03:43:12;;;;;;;5.35;0.52;;;;;;;-141.50;100.00;63355.56;4932176;29;20150;-78
2022/02/21 03:45:38;;;;;;;5.03;0.43;;;;;;;-141.50;100.00;63355.56;4933428;29;20386;-77
2022/02/21 03:48:05;;;;;;;1.98;0.30;;;;;;;-141.50;100.00;63355.56;4934071;29;20070;-78
2022/02/21 03:50:32;;;;;;;1.33;0.60;;;;;;;-141.50;100.00;63355.56;4934920;29;20048;-76
2022/02/21 03:52:59;;;;;;;1.67;0.28;;;;;;;-141.50;100.00;63355.56;4937988;29;20150;-78
2022/02/21 03:55:26;;;;;;;2.58;0.40;;;;;;;-141.50;100.00;63355.56;4941736;29;20115;-77
2022/02/21 03:57:52;;;;;;;2.10;0.30;;;;;;;-141.50;100.00;63355.56;4946096;29;20064;-77
2022/02/21 04:00:21;;;;;;;2.50;0.30;;;;;;;-141.50;100.00;63355.56;4947219;29;20126;-79
2022/02/21 04:02:48;;;;;;;2.95;0.47;;;;;;;-141.50;100.00;63355.56;4952966;29;20074;-78
2022/02/21 04:05:15;;;;;;;3.35;0.28;;;;;;;-141.50;100.00;63355.56;4953546;29;20062;-78
2022/02/21 04:07:42;;;;;;;3.22;0.40;;;;;;;-141.50;100.00;63355.56;4952681;29;20575;-78
2022/02/21 04:10:10;;;;;;;2.95;0.47;;;;;;;-141.50;100.00;63355.56;4950330;29;20094;-76
2022/02/21 04:12:37;;;;;;;1.17;0.28;;;;;;;-141.50;100.00;63355.56;4950948;29;20065;-77
2022/02/21 04:15:06;;;;;;;1.73;0.30;;;;;;;-141.50;100.00;63355.56;4949624;29;20059;-79
2022/02/21 04:17:46;;;;;;;0.52;0.20;;;;;;;-141.50;100.00;63355.56;4949736;29;20075;-78
2022/02/21 04:20:15;;;;;;;4.70;0.63;;;;;;;-141.50;100.00;63355.56;4948108;29;20111;-76
2022/02/21 04:22:43;;;;;;;2.13;0.50;;;;;;;-141.50;100.00;63355.56;4948219;29;20066;-78
2022/02/21 04:25:11;;;;;;;0.65;0.20;;;;;;;-141.50;100.00;63355.56;4949183;29;20187;-77
2022/02/21 04:27:58;;;;;;;2.90;0.50;;;;;;;-141.50;100.00;63355.56;4950266;29;20082;-78
2022/02/21 04:30:27;;;;;;;3.10;0.32;;;;;;;-141.50;100.00;63355.56;4949947;29;20055;-78
2022/02/21 04:32:55;;;;;;;2.10;0.38;;;;;;;-141.50;100.00;63355.56;4948633;29;20055;-78
2022/02/21 04:35:23;;;;;;;2.78;0.40;;;;;;;-141.50;100.00;63355.56;4950563;29;20066;-77
2022/02/21 04:37:50;;;;;;;2.95;0.30;;;;;;;-141.50;100.00;63355.56;4951258;29;20130;-77
2022/02/21 04:40:24;;;;;;;1.33;0.28;;;;;;;-141.50;100.00;63355.56;4949821;29;20503;-78
2022/02/21 04:42:52;;;;;;;2.13;0.25;;;;;;;-141.50;100.00;63355.56;4952416;29;20070;-78
2022/02/21 04:45:20;;;;;;;0.77;0.25;;;;;;;-141.50;100.00;63355.56;4950883;29;20052;-76
2022/02/21 04:47:48;;;;;;;1.38;0.30;;;;;;;-141.50;100.00;63355.56;4950478;29;20070;-76
2022/02/21 04:50:15;;;;;;;4.40;0.60;;;;;;;-141.50;100.00;63355.56;4951175;29;20059;-79
2022/02/21 04:52:44;;;;;;;2.15;0.40;;;;;;;-141.50;100.00;63355.56;4952130;29;20064;-78
2022/02/21 04:55:12;;;;;;;2.90;0.60;;;;;;;-141.50;100.00;63355.56;4953077;29;20063;-78
2022/02/21 04:57:40;;;;;;;0.90;0.32;;;;;;;-141.50;100.00;63355.56;4953293;29;20059;-77
2022/02/21 05:00:09;;;;;;;5.85;0.60;;;;;;;-141.50;100.00;63355.56;4953156;29;20067;-79
2022/02/21 05:02:39;;;;;;;1.48;0.30;;;;;;;-141.50;100.00;63355.56;4953775;29;20087;-79
2022/02/21 05:05:10;;;;;;;4.75;0.60;;;;;;;-141.50;100.00;63355.56;4955086;29;20117;-78
2022/02/21 05:07:43;;;;;;;1.63;0.50;;;;;;;-141.50;100.00;63355.56;4953458;29;20039;-79
2022/02/21 05:10:10;;;;;;;1.95;0.43;;;;;;;-141.50;100.00;63355.56;4952240;29;20062;-79
2022/02/21 05:12:37;;;;;;;2.30;0.90;;;;;;;-141.50;100.00;63355.56;4952819;29;20459;-77
2022/02/21 05:15:06;;;;;;;1.70;0.40;;;;;;;-141.50;100.00;63355.56;4952900;29;20094;-80
2022/02/21 05:17:34;;;;;;;4.97;0.43;;;;;;;-141.50;100.00;63355.56;4952813;29;20066;-77
2022/02/21 05:20:01;;;;;;;2.00;0.38;;;;;;;-141.50;100.00;63355.56;4933737;29;20083;-78
2022/02/21 05:22:31;;;;;;;2.50;0.38;;;;;;;-141.50;100.00;63355.56;4948274;29;20477;-78
2022/02/21 05:24:58;;;;;;;1.30;0.40;;;;;;;-141.50;100.00;63355.56;4948726;29;20527;-78
2022/02/21 05:27:24;;;;;;;3.00;0.50;;;;;;;-141.50;100.00;63355.56;4948078;29;20059;-77
2022/02/21 05:29:51;;;;;;;1.52;0.38;;;;;;;-141.50;100.00;63355.56;4950145;29;20062;-77
2022/02/21 05:32:18;;;;;;;1.52;0.50;;;;;;;-141.50;100.00;63355.56;4950191;29;20055;-79
2022/02/21 05:34:44;;;;;;;2.13;0.30;;;;;;;-141.50;100.00;63355.56;4950377;29;20059;-79
2022/02/21 05:37:11;;;;;;;1.60;0.30;;;;;;;-141.50;100.00;63355.56;4950849;29;20051;-77
2022/02/21 05:39:38;;;;;;;2.70;0.50;;;;;;;-141.50;100.00;63355.56;4950799;29;20087;-78
2022/02/21 05:42:05;;;;;;;2.67;0.45;;;;;;;-141.50;100.00;63355.56;4949509;29;20056;-77
2022/02/21 05:44:32;;;;;;;3.72;0.60;;;;;;;-141.50;100.00;63355.56;4950828;29;20512;-77
2022/02/21 05:46:59;;;;;;;6.60;0.47;;;;;;;-141.50;100.00;63355.56;4949126;29;20052;-77
2022/02/21 05:49:29;;;;;;;1.33;0.40;;;;;;;-141.50;100.00;63355.56;4952224;29;20112;-77
2022/02/21 05:51:56;;;;;;;2.97;0.30;;;;;;;-141.50;100.00;63355.56;4948499;29;20079;-77
2022/02/21 05:54:23;;;;;;;1.27;0.40;;;;;;;-141.50;100.00;63355.56;4948129;29;20167;-78
2022/02/21 05:56:50;;;;;;;0.55;0.30;;;;;;;-141.50;100.00;63355.56;4947118;29;20059;-78
2022/02/21 05:59:22;;;;;;;0.77;0.30;;;;;;;-141.50;100.00;63355.56;4949823;29;20051;-78
2022/02/21 06:01:49;;;;;;;1.15;0.30;;;;;;;-141.50;100.00;63355.56;4949517;29;20131;-79
2022/02/21 06:04:15;;;;;;;2.60;0.57;;;;;;;-141.50;100.00;63355.56;4949977;29;20055;-76
2022/02/21 06:06:42;;;;;;;1.10;0.32;;;;;;;-141.50;100.00;63355.56;4949424;29;20051;-79
2022/02/21 06:09:09;;;;;;;0.88;0.40;;;;;;;-141.50;100.00;63355.56;4949948;29;20259;-77
2022/02/21 06:11:35;;;;;;;2.05;0.50;;;;;;;-141.50;100.00;63355.56;4949636;29;20114;-80
2022/02/21 06:14:02;;;;;;;4.70;0.60;;;;;;;-141.50;100.00;63355.56;4949302;29;20054;-78
2022/02/21 06:16:34;;;;;;;5.43;0.70;;;;;;;-141.50;100.00;63355.56;4950522;29;20254;-78
2022/02/21 06:19:00;;;;;;;2.05;0.60;;;;;;;-141.50;100.00;63355.56;4950912;29;20397;-78
2022/02/21 06:21:28;;;;;;;1.65;0.50;;;;;;;-141.50;100.00;63355.56;4949913;29;20051;-78
2022/02/21 06:23:55;;;;;;;4.07;0.65;;;;;;;-141.50;100.00;63355.56;4950384;29;20063;-78
2022/02/21 06:26:24;;;;;;;2.92;0.60;;;;;;;-141.50;100.00;63355.56;4947798;29;20048;-79
2022/02/21 06:28:51;;;;;;;3.08;0.60;;;;;;;-141.50;100.00;63355.56;4948982;29;20079;-78
2022/02/21 06:31:17;;;;;;;3.63;0.60;;;;;;;-141.50;100.00;63355.56;4948475;29;20051;-77
2022/02/21 06:33:44;;;;;;;7.97;0.70;;;;;;;-141.50;100.00;63355.56;4950694;29;20058;-78
2022/02/21 06:36:11;;;;;;;3.90;0.88;;;;;;;-141.50;100.00;63355.56;4948724;29;20075;-77
2022/02/21 06:38:40;;;;;;;2.13;0.50;;;;;;;-141.50;100.00;63355.56;4948623;29;20059;-78
2022/02/21 06:41:06;;;;;;;3.30;0.70;;;;;;;-141.50;100.00;63355.56;4949602;29;20051;-77
2022/02/21 06:43:33;;;;;;;1.70;0.63;;;;;;;-141.50;100.00;63355.56;4951970;29;20111;-80
2022/02/21 06:46:00;;;;;;;6.03;0.50;;;;;;;-141.50;100.00;63355.56;4950803;29;20528;-76
2022/02/21 06:48:27;;;;;;;2.60;0.50;;;;;;;-141.50;100.00;63355.56;4951517;29;20059;-77
2022/02/21 06:50:55;;;;;;;2.83;0.60;;;;;;;-141.50;100.00;63355.56;4950137;29;20047;-77
2022/02/21 06:53:21;;;;;;;1.83;0.50;;;;;;;-141.50;100.00;63355.56;4947642;29;20056;-77
2022/02/21 06:55:48;;;;;;;2.92;0.47;;;;;;;-141.50;100.00;63355.56;4947515;29;20119;-79
2022/02/21 06:58:15;;;;;;;3.58;0.50;;;;;;;-141.50;100.00;63355.56;4953753;29;20047;-78
2022/02/21 07:00:47;;;;;;;2.65;0.70;;;;;;;-141.50;100.00;63355.56;4952415;29;20123;-77
2022/02/21 07:03:14;;;;;;;1.70;0.40;;;;;;;-141.50;100.00;63355.56;4945670;29;20103;-77
2022/02/21 07:05:40;;;;;;;1.75;0.43;;;;;;;-141.50;100.00;63355.56;4945076;29;20069;-77
2022/02/21 07:08:08;;;;;;;3.13;0.55;;;;;;;-141.50;100.00;63355.56;4944224;29;20052;-78
2022/02/21 07:10:34;;;;;;;3.38;0.77;;;;;;;-141.50;100.00;63355.56;4939239;29;20066;-76
2022/02/21 07:13:01;;;;;;;8.48;0.60;;;;;;;-141.50;100.00;63355.56;4941501;29;20416;-77
2022/02/21 07:15:28;;;;;;;18.75;0.93;;;;;;;-141.50;100.00;63355.56;4939566;29;20051;-76
2022/02/21 07:17:58;;;;;;;3.60;0.80;;;;;;;-141.50;100.00;63355.56;4941613;29;20062;-78
2022/02/21 07:20:25;;;;;;;3.55;0.80;;;;;;;-141.50;100.00;63355.56;4938972;29;20052;-77
2022/02/21 07:22:53;;;;;;;4.57;0.90;;;;;;;-141.50;100.00;63355.56;4938012;29;20055;-78
2022/02/21 07:25:19;;;;;;;2.55;0.85;;;;;;;-141.50;100.00;63355.56;4931877;29;20129;-76
2022/02/21 07:27:49;;;;;;;2.90;0.75;;;;;;;-141.50;100.00;63355.56;4934135;29;20052;-80
2022/02/21 07:30:19;;;;;;;1.73;0.40;;;;;;;-141.50;100.00;63355.56;4933927;29;20349;-78
2022/02/21 07:32:46;;;;;;;2.58;0.65;;;;;;;-141.50;100.00;63355.56;4936740;29;20509;-79
2022/02/21 07:35:13;;;;;;;6.85;1.00;;;;;;;-141.50;100.00;63355.56;4942090;29;20052;-77
2022/02/21 07:37:40;;;;;;;7.85;0.90;;;;;;;-141.50;100.00;63355.56;4942731;29;20408;-77
2022/02/21 07:40:08;;;;;;;2.47;1.00;;;;;;;-141.50;100.00;63355.56;4942097;29;20047;-79
2022/02/21 07:42:36;;;;;;;10.23;1.30;;;;;;;-141.50;100.00;63355.56;4940245;29;20250;-78
2022/02/21 07:45:03;;;;;;;9.02;1.05;;;;;;;-141.50;100.00;63355.56;4942415;29;20032;-79
2022/02/21 07:47:30;;;;;;;6.47;1.02;;;;;;;-141.50;100.00;63355.56;4951362;29;20158;-78
2022/02/21 07:49:57;;;;;;;7.63;1.20;;;;;;;-141.50;100.00;63355.56;4947674;29;20119;-79
2022/02/21 07:52:25;;;;;;;9.75;1.13;;;;;;;-141.50;100.00;63355.56;4949011;29;20086;-79
2022/02/21 07:54:52;;;;;;;7.03;1.20;;;;;;;-141.50;100.00;63355.56;4948631;29;20059;-78
2022/02/21 07:57:19;;;;;;;7.15;1.20;;;;;;;-141.50;100.00;63355.56;4951762;29;20118;-78
2022/02/21 07:59:45;;;;;;;4.97;1.20;;;;;;;-141.50;100.00;63355.56;4954165;29;20054;-78
2022/02/21 08:02:12;;;;;;;3.92;1.10;;;;;;;-141.50;100.00;63355.56;4953746;29;20075;-78
2022/02/21 08:04:39;;;;;;;10.23;1.50;;;;;;;-141.50;100.00;63355.56;4953790;28;20071;-78
2022/02/21 08:07:06;;;;;;;8.55;1.50;;;;;;;-141.50;100.00;63355.56;4953550;29;20055;-77
2022/02/21 08:09:34;;;;;;;5.80;0.90;;;;;;;-141.50;100.00;63355.56;4949979;29;20048;-76
2022/02/21 08:12:05;;;;;;;4.70;0.98;;;;;;;-141.50;100.00;63355.56;4946102;29;20138;-77
2022/02/21 08:14:32;;;;;;;3.80;1.00;;;;;;;-141.50;100.00;63355.56;4946305;29;20110;-78
2022/02/21 08:16:58;;;;;;;8.50;0.95;;;;;;;-141.50;100.00;63355.56;4945654;29;20047;-78
2022/02/21 08:19:25;;;;;;;5.93;0.85;;;;;;;-141.50;100.00;63355.56;4942630;29;20051;-78
2022/02/21 08:21:52;;;;;;;7.85;1.42;;;;;;;-141.50;100.00;63355.56;4943347;29;20056;-77
2022/02/21 08:24:20;;;;;;;6.68;1.35;;;;;;;-141.50;100.00;63355.56;4940984;29;20059;-78
2022/02/21 08:26:47;;;;;;;9.13;1.30;;;;;;;-141.50;100.00;63355.56;4942634;29;20054;-78
2022/02/21 08:29:13;;;;;;;4.30;1.05;;;;;;;-141.50;100.00;63355.56;4939070;29;20527;-78
2022/02/21 08:31:41;;;;;;;6.03;1.10;;;;;;;-141.50;100.00;63355.56;4940696;29;20091;-78
2022/02/21 08:34:08;;;;;;;6.75;1.13;;;;;;;-141.50;100.00;63355.56;4947019;29;20149;-77
2022/02/21 08:36:34;;;;;;;5.45;0.95;;;;;;;-141.50;100.00;63355.56;4944097;29;20052;-78
2022/02/21 08:39:01;;;;;;;3.72;0.98;;;;;;;-141.50;100.00;63355.56;4943607;29;20047;-78
2022/02/21 08:41:28;;;;;;;5.53;0.93;;;;;;;-141.50;100.00;63355.56;4943045;29;20055;-76
2022/02/21 08:43:56;;;;;;;5.32;1.10;;;;;;;-141.50;100.00;63355.56;4943495;29;20333;-78
2022/02/21 08:46:24;;;;;;;8.48;0.98;;;;;;;-141.50;100.00;63355.56;4941733;29;20058;-78
2022/02/21 08:49:06;;;;;;;5.57;1.17;;;;;;;-141.50;100.00;63355.56;4947797;29;20511;-78
2022/02/21 08:51:33;;;;;;;3.78;0.73;;;;;;;-141.50;100.00;63355.56;4946471;29;20082;-78
2022/02/21 08:54:00;;;;;;;5.00;0.85;;;;;;;-141.50;100.00;63355.56;4949847;29;20086;-78
2022/02/21 08:56:32;;;;;;;7.82;0.98;;;;;;;-141.50;100.00;63355.56;4951129;29;20051;-78
2022/02/21 08:58:59;;;;;;;4.13;0.98;;;;;;;-141.50;100.00;63355.56;4944235;29;20122;-76
2022/02/21 09:01:25;;;;;;;5.90;0.88;;;;;;;-141.50;100.00;63355.56;4945131;29;20059;-78
2022/02/21 09:03:52;;;;;;;8.10;1.10;;;;;;;-141.50;100.00;63355.56;4945337;29;20385;-78
2022/02/21 09:06:19;;;;;;;6.30;0.85;;;;;;;-141.50;100.00;63355.56;4943526;29;20071;-76
2022/02/21 09:08:46;;;;;;;8.85;0.88;;;;;;;-141.50;100.00;63355.56;4943219;29;20412;-78
2022/02/21 09:11:13;;;;;;;4.85;1.02;;;;;;;-141.50;100.00;63355.56;4940062;29;20066;-77
2022/02/21 09:13:40;;;;;;;3.83;0.70;;;;;;;-141.50;100.00;63355.56;4939854;29;20064;-78
2022/02/21 09:16:07;;;;;;;2.63;0.70;;;;;;;-141.50;100.00;63355.56;4940556;29;20067;-77
2022/02/21 09:18:34;;;;;;;6.30;1.00;;;;;;;-141.50;100.00;63355.56;4937080;29;20059;-78
2022/02/21 09:21:01;;;;;;;4.28;0.50;;;;;;;-141.50;100.00;63355.56;4935454;29;20103;-77
2022/02/21 09:23:27;;;;;;;8.88;1.20;;;;;;;-141.50;100.00;63355.56;4936165;29;20312;-77
2022/02/21 09:25:55;;;;;;;5.78;0.98;;;;;;;-141.50;100.00;63355.56;4934946;29;20147;-78
2022/02/21 09:28:22;;;;;;;3.08;0.68;;;;;;;-141.50;100.00;63355.56;4938429;29;20417;-78
2022/02/21 09:30:53;;;;;;;6.78;1.05;;;;;;;-141.50;100.00;63355.56;4935404;29;20059;-77
2022/02/21 09:33:23;;;;;;;5.13;0.77;;;;;;;-141.50;100.00;63355.56;4935677;29;20086;-78
2022/02/21 09:35:50;;;;;;;3.17;0.95;;;;;;;-141.50;100.00;63355.56;4937719;29;20457;-77
2022/02/21 09:38:18;;;;;;;4.65;0.93;;;;;;;-141.50;100.00;63355.56;4936038;29;20044;-76
2022/02/21 09:40:50;;;;;;;3.03;0.60;;;;;;;-141.50;100.00;63355.56;4934370;29;20407;-76
2022/02/21 09:43:25;;;;;;;4.00;0.70;;;;;;;-141.50;100.00;63355.56;4937392;29;20059;-77
2022/02/21 09:46:05;;;;;;;5.50;0.60;;;;;;;-141.50;100.00;63355.56;4935307;29;20051;-77
2022/02/21 09:48:33;;;;;;;4.65;0.77;;;;;;;-141.50;100.00;63355.56;4936230;29;20070;-77
2022/02/21 09:51:00;;;;;;;5.22;0.90;;;;;;;-141.50;100.00;63355.56;4937642;29;20052;-77
2022/02/21 09:53:29;;;;;;;3.45;0.60;;;;;;;-141.50;100.00;63355.56;4937062;29;20062;-76
2022/02/21 09:55:56;;;;;;;2.85;0.60;;;;;;;-141.50;100.00;63355.56;4934195;29;20052;-76
2022/02/21 09:58:24;;;;;;;4.85;0.80;;;;;;;-141.50;100.00;63355.56;4937683;29;20055;-77
2022/02/21 10:00:53;;;;;;;6.65;0.80;;;;;;;-141.50;100.00;63355.56;4934275;29;20047;-76
2022/02/21 10:03:42;;;;;;;2.70;0.50;;;;;;;-141.50;100.00;63355.56;4932737;29;20500;-77
2022/02/21 10:06:27;;;;;;;3.72;0.55;;;;;;;-141.50;100.00;63355.56;4933458;29;20480;-76
2022/02/21 10:09:07;;;;;;;2.95;0.50;;;;;;;-141.50;100.00;63355.56;4932497;29;20058;-76
2022/02/21 10:11:37;;;;;;;3.78;0.80;;;;;;;-141.50;100.00;63355.56;4931189;29;20151;-76
2022/02/21 10:14:14;;;;;;;2.55;0.47;;;;;;;-141.50;100.00;63355.56;4932580;29;20066;-77
2022/02/21 10:16:43;;;;;;;4.80;0.70;;;;;;;-141.50;100.00;63355.56;4932333;29;20453;-77
2022/02/21 10:19:15;;;;;;;3.63;0.70;;;;;;;-141.50;100.00;63355.56;4931760;29;20066;-77
2022/02/21 10:21:47;;;;;;;5.25;0.80;;;;;;;-141.50;100.00;63355.56;4931015;29;20436;-77
2022/02/21 10:24:14;;;;;;;4.90;0.88;;;;;;;-141.50;100.00;63355.56;4937790;29;20063;-77
2022/02/21 10:26:43;;;;;;;5.75;0.75;;;;;;;-141.50;100.00;63355.56;4951515;29;20046;-78
2022/02/21 10:29:12;;;;;;;4.30;1.00;;;;;;;-141.50;100.00;63355.56;4955064;29;20099;-77
2022/02/21 10:31:38;;;;;;;6.32;1.35;;;;;;;-141.50;100.00;63355.56;4939649;29;20113;-77
2022/02/21 10:34:33;;;;;;;4.70;0.63;;;;;;;-141.50;100.00;63355.56;4934498;29;20131;-76
2022/02/21 10:36:59;;;;;;;8.73;0.80;;;;;;;-141.50;100.00;63355.56;4934452;29;20059;-75
2022/02/21 10:39:26;;;;;;;4.10;1.05;;;;;;;-141.50;100.00;63355.56;4930344;29;20055;-76
2022/02/21 10:41:54;;;;;;;6.15;0.63;;;;;;;-141.50;100.00;63355.56;4929853;29;20048;-78
2022/02/21 10:44:30;;;;;;;5.47;1.05;;;;;;;-141.50;100.00;63355.56;4930664;29;20059;-76
2022/02/21 10:47:17;;;;;;;5.60;1.08;;;;;;;-141.50;100.00;63355.56;4933510;29;20504;-76
2022/02/21 10:50:07;;;;;;;4.18;1.10;;;;;;;-141.50;100.00;63355.56;4932338;29;20151;-76
2022/02/21 10:52:39;;;;;;;4.95;0.90;;;;;;;-141.50;100.00;63355.56;4930219;29;20075;-76
2022/02/21 10:55:13;;;;;;;5.20;1.40;;;;;;;-141.50;100.00;63355.56;4931411;29;20501;-77
2022/02/21 10:57:42;;;;;;;4.18;0.90;;;;;;;-141.50;100.00;63355.56;4932508;29;20063;-77
2022/02/21 11:00:10;;;;;;;3.40;0.90;;;;;;;-141.50;100.00;63355.56;4931724;29;20070;-78
2022/02/21 11:02:41;;;;;;;6.70;1.35;;;;;;;-141.50;100.00;63355.56;4933398;29;20052;-76
2022/02/21 11:05:09;;;;;;;3.38;0.82;;;;;;;-141.50;100.00;63355.56;4916907;29;20613;-77
2022/02/21 11:07:41;;;;;;;4.97;1.00;;;;;;;-141.50;100.00;63355.56;4932081;29;20055;-78
2022/02/21 11:10:09;;;;;;;4.88;0.95;;;;;;;-141.50;100.00;63355.56;4932179;29;20463;-77
2022/02/21 11:12:44;;;;;;;8.40;1.33;;;;;;;-141.50;100.00;63355.56;4931601;29;20051;-76
2022/02/21 11:15:11;;;;;;;5.03;0.82;;;;;;;-141.50;100.00;63355.56;4932241;29;20062;-77